Time;durP1;ratioP1;P1;durP2;ratioP2;P2;SDS_P1;SDS_P2;PMS_P1;PMS_P2;Temp;Humidity;BMP_temperature;BMP_pressure;BME280_temperature;BME280_humidity;BME280_pressure;Samples;Min_cycle;Max_cycle;Signal;HPM_P1;HPM_P2
2023/03/14 00:01:50;;;;;;;2.43;0.80;;;9.90;99.90;;;;;;4982776;28;20038;-95
2023/03/14 00:04:23;;;;;;;1.00;0.80;;;9.90;99.90;;;;;;4983111;28;20018;-96
2023/03/14 00:06:51;;;;;;;1.67;0.93;;;9.90;99.90;;;;;;4985157;28;20558;-96
2023/03/14 00:09:19;;;;;;;0.93;0.80;;;9.90;99.90;;;;;;4981937;28;20061;-95
2023/03/14 00:11:52;;;;;;;2.60;0.80;;;9.90;99.90;;;;;;4982157;28;20066;-96
2023/03/14 00:14:21;;;;;;;2.40;0.63;;;9.90;99.90;;;;;;4982894;28;20038;-95
2023/03/14 00:16:49;;;;;;;1.00;0.53;;;9.90;99.90;;;;;;4981737;28;20026;-95
2023/03/14 00:19:15;;;;;;;0.60;0.60;;;9.80;99.90;;;;;;4984643;28;20061;-96
2023/03/14 00:21:40;;;;;;;1.87;0.80;;;9.80;99.90;;;;;;4983813;28;20482;-96
2023/03/14 00:24:11;;;;;;;0.80;0.60;;;9.80;99.90;;;;;;4981357;28;20489;-95
2023/03/14 00:26:52;;;;;;;1.47;0.93;;;9.80;99.90;;;;;;4985279;28;20030;-95
2023/03/14 00:29:21;;;;;;;1.33;0.50;;;9.80;99.90;;;;;;4985416;28;20042;-95
2023/03/14 00:31:49;;;;;;;1.47;0.63;;;9.70;99.90;;;;;;4984763;28;20042;-96
2023/03/14 00:34:22;;;;;;;1.97;0.70;;;9.70;99.90;;;;;;4984247;28;20381;-96
2023/03/14 00:36:50;;;;;;;3.03;1.23;;;9.70;99.90;;;;;;4984492;28;20465;-95
2023/03/14 00:39:39;;;;;;;1.30;0.80;;;9.70;99.90;;;;;;4990338;28;20022;-96
2023/03/14 00:42:13;;;;;;;0.60;0.60;;;9.70;99.90;;;;;;4987770;28;20089;-96
2023/03/14 00:44:41;;;;;;;0.95;0.60;;;9.70;99.90;;;;;;4990778;28;20766;-96
2023/03/14 00:47:29;;;;;;;0.70;0.40;;;9.70;99.90;;;;;;4985162;28;20062;-95
2023/03/14 00:50:03;;;;;;;0.50;0.50;;;9.70;99.90;;;;;;4990265;28;20030;-96
2023/03/14 00:52:32;;;;;;;1.00;0.70;;;9.70;99.90;;;;;;4987935;28;20087;-96
2023/03/14 00:55:00;;;;;;;1.30;0.67;;;9.60;99.90;;;;;;4986380;28;20081;-96
2023/03/14 00:57:33;;;;;;;0.60;0.50;;;9.60;99.90;;;;;;4990363;28;20038;-96
2023/03/14 01:00:03;;;;;;;2.37;0.60;;;9.60;99.90;;;;;;4989590;28;20394;-96
2023/03/14 01:02:31;;;;;;;0.63;0.60;;;9.60;99.90;;;;;;4986127;28;20096;-96
2023/03/14 01:05:21;;;;;;;1.00;0.70;;;9.60;99.90;;;;;;4992985;28;20034;-96
2023/03/14 01:07:59;;;;;;;2.37;0.70;;;9.60;99.90;;;;;;4991824;28;20088;-96
2023/03/14 01:10:33;;;;;;;1.70;0.87;;;9.60;99.90;;;;;;4989151;28;20125;-96
2023/03/14 01:13:01;;;;;;;1.00;0.60;;;9.60;99.90;;;;;;5002178;28;20003;-96
2023/03/14 01:15:40;;;;;;;2.30;1.13;;;9.60;99.90;;;;;;4990466;28;20038;-95
2023/03/14 01:18:10;;;;;;;2.27;0.70;;;9.60;99.90;;;;;;4984276;28;20164;-96
2023/03/14 01:20:44;;;;;;;0.90;0.60;;;9.60;99.90;;;;;;4986191;28;20055;-96
2023/03/14 01:23:12;;;;;;;2.07;0.60;;;9.60;99.90;;;;;;4989966;28;20125;-96
2023/03/14 01:25:41;;;;;;;0.60;0.60;;;9.50;99.90;;;;;;4985275;28;20045;-96
2023/03/14 01:28:16;;;;;;;2.17;0.70;;;9.60;99.90;;;;;;4986038;28;20027;-96
2023/03/14 01:30:42;;;;;;;;;;;9.50;99.90;;;;;;4986140;28;20101;-94
2023/03/14 01:33:11;;;;;;;1.80;0.70;;;9.50;99.90;;;;;;4982630;28;19993;-95
2023/03/14 01:35:44;;;;;;;0.57;0.50;;;9.50;99.90;;;;;;4986607;28;20035;-96
2023/03/14 01:38:09;;;;;;;3.47;0.80;;;9.50;99.90;;;;;;4979452;28;20556;-96
2023/03/14 01:40:44;;;;;;;2.00;0.60;;;9.40;99.90;;;;;;4985136;28;20124;-96
2023/03/14 01:43:24;;;;;;;1.30;0.70;;;9.40;99.90;;;;;;4981417;28;20026;-95
2023/03/14 01:46:12;;;;;;;0.57;0.50;;;9.50;99.90;;;;;;4989718;28;20022;-96
2023/03/14 01:49:01;;;;;;;1.13;0.60;;;9.40;99.90;;;;;;4971682;28;20074;-96
2023/03/14 01:51:40;;;;;;;5.17;0.80;;;9.40;99.90;;;;;;4980684;23;20054;-96
2023/03/14 01:54:23;;;;;;;2.03;0.80;;;9.30;99.90;;;;;;4998500;28;20018;-96
2023/03/14 01:59:20;;;;;;;2.57;0.80;;;9.30;99.90;;;;;;4979904;28;20031;-96
2023/03/14 02:02:05;;;;;;;3.07;0.80;;;9.20;99.90;;;;;;4983780;28;20138;-96
2023/03/14 02:04:43;;;;;;;1.92;0.80;;;9.20;99.90;;;;;;4975851;28;20102;-96
2023/03/14 02:07:31;;;;;;;3.40;0.90;;;9.20;99.90;;;;;;4979775;28;20027;-96
2023/03/14 02:10:01;;;;;;;1.57;0.63;;;9.20;99.90;;;;;;4968550;28;20046;-95
2023/03/14 02:12:42;;;;;;;1.33;0.70;;;9.20;99.90;;;;;;4980288;28;20014;-95
2023/03/14 02:15:10;;;;;;;4.50;1.43;;;9.10;99.90;;;;;;4983967;28;20035;-96
2023/03/14 02:17:54;;;;;;;1.00;0.57;;;9.10;99.90;;;;;;4979639;28;20030;-96
2023/03/14 02:20:31;;;;;;;1.63;0.80;;;9.00;99.90;;;;;;4975914;28;20023;-96
2023/03/14 02:23:13;;;;;;;3.10;0.70;;;8.90;99.90;;;;;;4971691;28;20034;-94
2023/03/14 02:25:43;;;;;;;0.50;0.50;;;8.90;99.90;;;;;;4967998;28;20493;-96
2023/03/14 02:28:13;;;;;;;0.50;0.50;;;8.80;99.90;;;;;;4966942;28;20038;-95
2023/03/14 02:30:41;;;;;;;1.70;0.67;;;8.70;99.90;;;;;;4970067;28;20047;-95
2023/03/14 02:33:11;;;;;;;0.93;0.50;;;8.60;99.90;;;;;;4967330;28;20026;-95
2023/03/14 02:35:58;;;;;;;0.90;0.57;;;8.60;99.90;;;;;;4966382;28;20047;-95
2023/03/14 02:38:41;;;;;;;1.30;1.20;;;8.50;99.90;;;;;;4966420;28;20022;-96
2023/03/14 02:41:07;;;;;;;4.37;0.60;;;8.50;99.90;;;;;;4973098;28;20039;-95
2023/03/14 02:43:33;;;;;;;2.13;0.70;;;8.40;99.90;;;;;;4972556;28;20027;-96
2023/03/14 02:46:00;;;;;;;0.80;0.50;;;8.40;99.90;;;;;;4971875;28;20470;-95
2023/03/14 02:48:33;;;;;;;1.63;0.57;;;8.30;99.90;;;;;;4968511;28;20030;-94
2023/03/14 02:51:00;;;;;;;0.83;0.60;;;8.30;99.90;;;;;;4967409;28;20118;-95
2023/03/14 02:53:31;;;;;;;0.90;0.60;;;8.30;99.90;;;;;;4967236;28;20031;-92
2023/03/14 02:55:57;;;;;;;1.63;0.83;;;8.30;99.90;;;;;;4968758;28;20042;-96
2023/03/14 02:58:23;;;;;;;0.67;0.57;;;8.30;99.90;;;;;;4968350;28;20055;-95
2023/03/14 03:00:49;;;;;;;1.40;0.80;;;8.30;99.90;;;;;;4965084;28;20122;-96
2023/03/14 03:03:15;;;;;;;1.00;0.60;;;8.30;99.90;;;;;;4968985;28;20031;-95
2023/03/14 03:05:42;;;;;;;1.17;0.67;;;8.30;99.90;;;;;;4968680;28;20968;-96
2023/03/14 03:08:08;;;;;;;0.67;0.53;;;8.30;99.90;;;;;;4972452;28;20031;-95
2023/03/14 03:10:34;;;;;;;0.70;0.60;;;8.40;99.90;;;;;;4972669;28;20161;-95
2023/03/14 03:12:59;;;;;;;1.10;0.60;;;8.30;99.90;;;;;;4973717;28;20066;-95
2023/03/14 03:15:25;;;;;;;1.17;0.57;;;8.30;99.90;;;;;;4975443;28;20034;-95
2023/03/14 03:20:22;;;;;;;0.80;0.70;;;8.30;99.90;;;;;;4977155;28;20066;-95
2023/03/14 03:22:50;;;;;;;2.00;0.70;;;8.30;99.90;;;;;;4978021;28;20053;-95
2023/03/14 03:25:32;;;;;;;0.50;0.50;;;8.30;99.90;;;;;;4979882;28;20013;-96
2023/03/14 03:28:00;;;;;;;1.27;0.50;;;8.30;99.90;;;;;;4989587;28;20027;-96
2023/03/14 03:30:53;;;;;;;0.70;0.50;;;8.30;99.90;;;;;;4979240;28;20074;-95
2023/03/14 03:33:23;;;;;;;0.97;0.60;;;8.30;99.90;;;;;;4976394;28;20035;-96
2023/03/14 03:35:52;;;;;;;1.70;0.80;;;8.20;99.90;;;;;;4980257;28;20027;-95
2023/03/14 03:38:20;;;;;;;0.60;0.40;;;8.20;99.90;;;;;;4982681;28;20029;-96
2023/03/14 03:40:51;;;;;;;0.70;0.50;;;8.20;99.90;;;;;;4981635;28;20097;-95
2023/03/14 03:43:39;;;;;;;0.40;0.40;;;8.20;99.90;;;;;;4975945;28;20031;-95
2023/03/14 03:46:14;;;;;;;0.43;0.40;;;8.10;99.90;;;;;;4972489;28;20027;-95
2023/03/14 03:49:13;;;;;;;0.43;0.43;;;8.10;99.90;;;;;;4971562;28;20053;-96
2023/03/14 03:51:41;;;;;;;2.30;0.50;;;8.10;99.90;;;;;;4968306;28;20027;-96
2023/03/14 03:54:11;;;;;;;0.87;0.40;;;8.10;99.90;;;;;;4969009;28;20027;-95
2023/03/14 03:56:40;;;;;;;0.40;0.40;;;8.20;99.90;;;;;;4968681;28;20124;-95
2023/03/14 03:59:10;;;;;;;0.37;0.37;;;8.20;99.90;;;;;;4967882;28;20026;-95
2023/03/14 04:01:44;;;;;;;0.73;0.50;;;8.10;99.90;;;;;;4966841;28;20046;-96
2023/03/14 04:04:12;;;;;;;1.27;0.50;;;8.10;99.90;;;;;;4969595;28;20038;-94
2023/03/14 04:06:41;;;;;;;1.17;0.70;;;8.20;99.90;;;;;;4968208;28;20042;-96
2023/03/14 04:09:10;;;;;;;1.50;0.67;;;8.20;99.90;;;;;;4965062;28;20085;-94
2023/03/14 04:11:36;;;;;;;0.53;0.53;;;8.20;99.90;;;;;;4967027;28;20034;-94
2023/03/14 04:14:02;;;;;;;0.40;0.40;;;8.20;99.90;;;;;;4964063;28;20046;-95
2023/03/14 04:16:27;;;;;;;0.50;0.50;;;8.20;99.90;;;;;;4964411;28;20027;-94
2023/03/14 04:18:53;;;;;;;0.40;0.40;;;8.20;99.90;;;;;;4960360;28;20078;-95
2023/03/14 04:21:18;;;;;;;0.40;0.40;;;8.20;99.90;;;;;;4961450;28;20114;-93
2023/03/14 04:23:44;;;;;;;0.40;0.40;;;8.20;99.90;;;;;;4961652;28;20098;-94
2023/03/14 04:26:10;;;;;;;0.40;0.40;;;8.20;99.90;;;;;;4961456;28;20449;-93
2023/03/14 04:28:36;;;;;;;0.50;0.50;;;8.20;99.90;;;;;;4960620;28;20019;-95
2023/03/14 04:31:14;;;;;;;0.50;0.50;;;8.20;99.90;;;;;;4962489;28;20018;-94
2023/03/14 04:33:40;;;;;;;0.60;0.47;;;8.20;99.90;;;;;;4959883;28;20026;-94
2023/03/14 04:36:07;;;;;;;0.40;0.40;;;8.20;99.90;;;;;;4960142;28;20116;-93
2023/03/14 04:38:32;;;;;;;0.70;0.50;;;8.10;99.90;;;;;;4959498;28;20039;-93
2023/03/14 04:40:59;;;;;;;0.87;0.50;;;8.10;99.90;;;;;;4961114;28;20041;-94
2023/03/14 04:43:25;;;;;;;0.50;0.50;;;8.10;99.90;;;;;;4962176;28;20739;-95
2023/03/14 04:45:53;;;;;;;2.33;0.90;;;8.10;99.90;;;;;;4960901;28;20080;-93
2023/03/14 04:48:18;;;;;;;0.70;0.50;;;8.10;99.90;;;;;;4960925;28;20030;-94
2023/03/14 04:50:46;;;;;;;0.50;0.50;;;8.00;99.90;;;;;;4958936;28;20093;-93
2023/03/14 04:53:12;;;;;;;1.37;0.40;;;8.10;99.90;;;;;;4958751;28;20523;-94
2023/03/14 04:55:37;;;;;;;0.40;0.40;;;8.10;99.90;;;;;;4962889;28;20035;-95
2023/03/14 04:58:03;;;;;;;0.70;0.50;;;8.10;99.90;;;;;;4959945;28;20082;-94
2023/03/14 05:00:29;;;;;;;0.73;0.50;;;8.10;99.90;;;;;;4961886;28;20282;-93
2023/03/14 05:02:54;;;;;;;0.83;0.50;;;8.10;99.90;;;;;;4960115;28;20030;-95
2023/03/14 05:05:20;;;;;;;0.40;0.40;;;8.10;99.90;;;;;;4967292;28;20423;-93
2023/03/14 05:07:46;;;;;;;0.53;0.50;;;8.00;99.90;;;;;;4959339;28;20035;-94
2023/03/14 05:10:11;;;;;;;0.50;0.50;;;8.00;99.90;;;;;;4958789;28;20090;-94
2023/03/14 05:12:37;;;;;;;0.53;0.40;;;8.00;99.90;;;;;;4957880;28;20204;-92
2023/03/14 05:15:04;;;;;;;0.43;0.40;;;7.90;99.90;;;;;;4957293;28;20121;-91
2023/03/14 05:17:30;;;;;;;0.50;0.50;;;7.90;99.90;;;;;;4955651;28;20027;-90
2023/03/14 05:19:56;;;;;;;0.40;0.40;;;7.90;99.90;;;;;;4957151;28;20464;-90
2023/03/14 05:22:21;;;;;;;0.50;0.50;;;7.90;99.90;;;;;;4955022;28;20110;-91
2023/03/14 05:24:47;;;;;;;0.53;0.53;;;7.90;99.90;;;;;;4955695;28;20043;-90
2023/03/14 05:27:13;;;;;;;0.80;0.60;;;7.80;99.90;;;;;;4955887;28;20049;-91
2023/03/14 05:29:38;;;;;;;1.03;0.73;;;7.80;99.90;;;;;;4956645;28;20050;-90
2023/03/14 05:32:04;;;;;;;0.60;0.57;;;7.80;99.90;;;;;;4956067;28;20074;-90
2023/03/14 05:34:30;;;;;;;0.60;0.50;;;7.70;99.90;;;;;;4956805;28;20037;-91
2023/03/14 05:36:56;;;;;;;0.70;0.50;;;7.70;99.90;;;;;;4957016;28;20036;-92
2023/03/14 05:39:21;;;;;;;2.73;0.60;;;7.70;99.90;;;;;;4956729;28;20038;-91
2023/03/14 05:41:47;;;;;;;0.60;0.60;;;7.70;99.90;;;;;;4956695;28;21369;-90
2023/03/14 05:44:12;;;;;;;0.93;0.47;;;7.70;99.90;;;;;;4956572;28;20094;-91
2023/03/14 05:46:38;;;;;;;0.77;0.50;;;7.60;99.90;;;;;;4956972;28;20066;-91
2023/03/14 05:49:03;;;;;;;0.50;0.50;;;7.60;99.90;;;;;;4954628;28;20074;-91
2023/03/14 05:51:29;;;;;;;0.60;0.60;;;7.60;99.90;;;;;;4954872;28;20039;-91
2023/03/14 05:53:54;;;;;;;0.87;0.60;;;7.50;99.90;;;;;;4955376;28;20030;-95
2023/03/14 05:56:20;;;;;;;0.70;0.53;;;7.60;99.90;;;;;;4942006;28;20054;-88
2023/03/14 05:58:45;;;;;;;0.93;0.70;;;7.60;99.90;;;;;;4952558;28;20086;-89
2023/03/14 06:01:11;;;;;;;1.47;0.63;;;7.60;99.90;;;;;;4956070;28;20085;-89
2023/03/14 06:03:39;;;;;;;0.80;0.60;;;7.60;99.90;;;;;;4954469;28;20045;-88
2023/03/14 06:06:05;;;;;;;3.93;1.67;;;7.60;99.90;;;;;;4956208;28;20528;-89
2023/03/14 06:08:30;;;;;;;0.97;0.70;;;7.60;99.90;;;;;;4953504;28;20047;-89
2023/03/14 06:10:57;;;;;;;2.07;0.80;;;7.60;99.90;;;;;;4955029;28;20081;-89
2023/03/14 06:13:22;;;;;;;0.90;0.70;;;7.60;99.90;;;;;;4953445;28;20038;-88
2023/03/14 06:15:48;;;;;;;0.60;0.60;;;7.50;99.90;;;;;;4955225;28;20030;-88
2023/03/14 06:18:14;;;;;;;1.77;0.60;;;7.60;99.90;;;;;;4953326;28;20885;-89
2023/03/14 06:20:39;;;;;;;1.37;0.80;;;7.60;99.90;;;;;;4955335;28;20126;-89
2023/03/14 06:23:06;;;;;;;1.43;0.60;;;7.60;99.90;;;;;;4955180;28;20390;-89
2023/03/14 06:25:32;;;;;;;1.20;0.60;;;7.60;99.90;;;;;;4954542;28;20063;-89
2023/03/14 06:27:58;;;;;;;1.17;0.70;;;7.60;99.90;;;;;;4953340;28;20035;-89
2023/03/14 06:30:24;;;;;;;1.67;0.70;;;7.60;99.90;;;;;;4953735;28;20043;-88
2023/03/14 06:32:49;;;;;;;1.00;0.70;;;7.70;99.90;;;;;;4968711;28;20444;-88
2023/03/14 06:35:15;;;;;;;1.27;0.60;;;7.70;99.90;;;;;;4955931;28;21402;-87
2023/03/14 06:37:40;;;;;;;0.77;0.50;;;7.80;99.90;;;;;;4954179;28;20102;-87
2023/03/14 06:40:07;;;;;;;0.53;0.50;;;7.80;99.90;;;;;;4955609;28;20031;-88
2023/03/14 06:42:32;;;;;;;1.60;0.60;;;7.80;99.90;;;;;;4955757;28;20114;-87
2023/03/14 06:44:58;;;;;;;0.50;0.50;;;7.90;99.90;;;;;;4957990;28;20139;-88
2023/03/14 06:47:24;;;;;;;1.03;0.80;;;7.90;99.90;;;;;;4961638;28;20027;-88
2023/03/14 06:49:49;;;;;;;0.57;0.57;;;8.00;99.90;;;;;;4957043;28;20071;-88
2023/03/14 06:52:15;;;;;;;0.60;0.50;;;8.00;99.90;;;;;;4956799;28;20027;-87
2023/03/14 06:54:40;;;;;;;1.43;0.60;;;8.00;99.90;;;;;;4959351;28;20031;-87
2023/03/14 06:57:06;;;;;;;0.50;0.50;;;8.00;99.90;;;;;;4957659;28;20057;-88
2023/03/14 06:59:32;;;;;;;2.43;0.67;;;8.00;99.90;;;;;;4959206;28;20089;-88
2023/03/14 07:01:57;;;;;;;0.60;0.50;;;8.10;99.90;;;;;;4957965;28;20129;-88
2023/03/14 07:04:23;;;;;;;3.40;0.70;;;8.10;99.90;;;;;;4955483;28;20037;-87
2023/03/14 07:06:48;;;;;;;1.47;0.67;;;8.10;99.90;;;;;;4947883;28;20050;-87
2023/03/14 07:09:16;;;;;;;0.87;0.60;;;8.10;99.90;;;;;;4948775;28;20073;-87
2023/03/14 07:11:42;;;;;;;0.80;0.47;;;8.20;99.90;;;;;;4952774;28;20035;-87
2023/03/14 07:14:08;;;;;;;0.63;0.50;;;8.20;99.90;;;;;;4950732;28;20540;-87
2023/03/14 07:16:33;;;;;;;0.80;0.67;;;8.20;99.90;;;;;;4949944;28;20031;-87
2023/03/14 07:19:00;;;;;;;2.40;0.60;;;8.30;99.90;;;;;;4948207;28;21686;-87
2023/03/14 07:21:26;;;;;;;0.60;0.60;;;8.30;99.90;;;;;;4952895;28;20110;-88
2023/03/14 07:23:51;;;;;;;2.27;0.60;;;8.30;99.90;;;;;;4950575;28;20191;-87
2023/03/14 07:26:17;;;;;;;2.43;0.60;;;8.30;99.90;;;;;;4949859;28;20489;-88
2023/03/14 07:28:43;;;;;;;0.57;0.57;;;8.30;99.90;;;;;;4949626;28;20054;-87
2023/03/14 07:31:08;;;;;;;1.20;0.70;;;8.40;99.90;;;;;;4948857;28;20497;-88
2023/03/14 07:33:34;;;;;;;1.33;0.70;;;8.40;99.90;;;;;;4950644;28;20026;-87
2023/03/14 07:36:00;;;;;;;1.77;0.73;;;8.40;99.90;;;;;;4950945;28;20125;-88
2023/03/14 07:38:27;;;;;;;0.90;0.70;;;8.40;99.90;;;;;;4949013;28;20031;-87
2023/03/14 07:41:04;;;;;;;0.77;0.60;;;8.40;99.90;;;;;;4948667;28;20042;-87
2023/03/14 07:43:30;;;;;;;1.40;0.77;;;8.50;99.90;;;;;;4948872;28;20082;-88
2023/03/14 07:45:55;;;;;;;1.13;0.50;;;8.50;99.90;;;;;;4957920;28;20031;-88
2023/03/14 07:48:21;;;;;;;0.67;0.60;;;8.50;99.90;;;;;;4956089;28;20125;-88
2023/03/14 07:50:51;;;;;;;1.20;0.60;;;8.60;99.90;;;;;;4943726;28;20058;-88
2023/03/14 07:53:17;;;;;;;2.20;0.70;;;8.60;99.90;;;;;;4949165;28;20115;-88
2023/03/14 07:55:43;;;;;;;1.40;0.80;;;8.70;99.90;;;;;;4951765;28;20055;-88
2023/03/14 07:58:09;;;;;;;1.73;0.50;;;8.70;99.90;;;;;;4951034;28;20079;-88
2023/03/14 08:00:34;;;;;;;1.17;0.73;;;8.80;99.90;;;;;;4948855;28;20607;-88
2023/03/14 08:03:00;;;;;;;1.40;0.70;;;8.90;99.90;;;;;;4948020;28;20048;-87
2023/03/14 08:05:25;;;;;;;0.97;0.53;;;8.90;99.90;;;;;;4945189;28;20151;-86
2023/03/14 08:07:51;;;;;;;1.50;0.77;;;8.90;99.90;;;;;;4947760;28;20037;-89
2023/03/14 08:10:22;;;;;;;1.43;0.70;;;9.00;99.90;;;;;;4946223;28;20055;-89
2023/03/14 08:12:53;;;;;;;1.00;0.60;;;9.10;99.90;;;;;;4948483;28;20028;-88
2023/03/14 08:15:19;;;;;;;0.90;0.60;;;9.20;99.90;;;;;;4948295;28;20058;-90
2023/03/14 08:17:44;;;;;;;1.20;0.60;;;9.20;99.90;;;;;;4945783;28;20499;-88
2023/03/14 08:20:11;;;;;;;0.50;0.50;;;9.30;99.90;;;;;;4947847;28;20059;-88
2023/03/14 08:22:37;;;;;;;2.83;0.40;;;9.40;99.90;;;;;;4954539;28;20053;-88
2023/03/14 08:25:03;;;;;;;1.40;0.60;;;9.40;99.90;;;;;;4954982;28;20118;-88
2023/03/14 08:27:29;;;;;;;2.10;0.57;;;9.40;99.90;;;;;;4958210;28;21436;-87
2023/03/14 08:29:54;;;;;;;0.83;0.40;;;9.40;99.90;;;;;;4955750;28;20035;-88
2023/03/14 08:32:20;;;;;;;1.43;0.80;;;9.50;99.90;;;;;;4958955;28;20026;-89
2023/03/14 08:34:46;;;;;;;1.90;0.70;;;9.50;99.90;;;;;;4956387;28;20576;-89
2023/03/14 08:37:11;;;;;;;0.93;0.60;;;9.60;99.90;;;;;;4957775;28;20047;-87
2023/03/14 08:39:37;;;;;;;1.47;0.70;;;9.60;99.90;;;;;;4958606;28;20126;-89
2023/03/14 08:42:03;;;;;;;1.90;0.50;;;9.60;99.90;;;;;;4956981;28;20053;-89
2023/03/14 08:44:28;;;;;;;1.27;0.70;;;9.70;99.90;;;;;;4955324;28;20190;-88
2023/03/14 08:46:54;;;;;;;1.20;0.70;;;9.70;99.90;;;;;;4956394;28;20113;-90
2023/03/14 08:49:20;;;;;;;0.90;0.70;;;9.70;99.90;;;;;;4954666;28;20034;-89
2023/03/14 08:51:45;;;;;;;2.00;1.10;;;9.70;99.90;;;;;;4956638;28;20486;-89
2023/03/14 08:54:11;;;;;;;3.23;0.80;;;9.90;99.90;;;;;;4954611;28;20030;-88
2023/03/14 08:56:41;;;;;;;1.87;0.60;;;9.90;99.90;;;;;;4954758;28;20026;-89
2023/03/14 08:59:10;;;;;;;1.63;0.70;;;10.00;99.90;;;;;;4952961;28;20034;-88
2023/03/14 09:01:36;;;;;;;3.53;0.80;;;10.10;99.90;;;;;;4953434;28;21516;-89
2023/03/14 09:04:01;;;;;;;1.67;0.60;;;10.10;99.90;;;;;;4954275;28;20030;-86
2023/03/14 09:06:27;;;;;;;0.50;0.50;;;10.10;99.90;;;;;;4949964;28;20029;-89
2023/03/14 09:08:53;;;;;;;1.33;0.70;;;10.10;99.90;;;;;;4953072;28;20296;-89
2023/03/14 09:11:18;;;;;;;2.00;0.60;;;10.20;99.90;;;;;;4954592;28;20030;-88
2023/03/14 09:13:44;;;;;;;1.67;0.60;;;10.20;99.90;;;;;;4954545;28;20062;-89
2023/03/14 09:16:10;;;;;;;1.67;0.70;;;10.30;99.90;;;;;;4954911;28;20035;-89
2023/03/14 09:18:36;;;;;;;0.87;0.73;;;10.20;99.90;;;;;;4953302;28;20047;-90
2023/03/14 09:21:01;;;;;;;3.03;0.80;;;10.20;99.90;;;;;;4955558;28;20518;-89
2023/03/14 09:23:30;;;;;;;1.17;0.70;;;10.20;99.90;;;;;;4953980;28;20110;-90
2023/03/14 09:25:57;;;;;;;4.13;0.90;;;10.20;99.90;;;;;;4954529;28;20030;-88
2023/03/14 09:28:22;;;;;;;1.60;0.67;;;10.30;99.90;;;;;;4953477;28;20062;-90
2023/03/14 09:30:50;;;;;;;1.57;0.77;;;10.30;99.90;;;;;;4953155;28;20474;-88
2023/03/14 09:33:16;;;;;;;3.43;0.87;;;10.40;99.90;;;;;;4953007;28;20019;-88
2023/03/14 09:35:42;;;;;;;1.77;0.60;;;10.40;99.90;;;;;;4953521;28;20047;-89
2023/03/14 09:38:07;;;;;;;1.30;0.90;;;10.40;99.90;;;;;;4954532;28;20023;-89
2023/03/14 09:40:39;;;;;;;2.20;0.77;;;10.40;99.90;;;;;;4954981;28;20529;-89
2023/03/14 09:43:07;;;;;;;2.47;0.82;;;10.50;99.90;;;;;;4971222;28;20027;-89
2023/03/14 09:45:34;;;;;;;2.80;0.82;;;10.50;99.90;;;;;;4955611;28;20043;-88
2023/03/14 09:48:02;;;;;;;1.45;0.65;;;10.60;99.90;;;;;;4953798;28;20039;-90
2023/03/14 09:50:42;;;;;;;0.80;0.50;;;10.70;99.90;;;;;;4957338;28;20038;-89
2023/03/14 09:53:26;;;;;;;4.17;0.83;;;10.70;99.90;;;;;;4954343;28;20027;-90
2023/03/14 09:55:53;;;;;;;1.98;0.63;;;10.70;99.90;;;;;;4955219;28;20031;-90
2023/03/14 09:58:24;;;;;;;1.10;0.60;;;10.70;99.90;;;;;;4954420;28;20023;-89
2023/03/14 10:00:52;;;;;;;1.65;0.82;;;10.80;99.90;;;;;;4954921;28;20042;-88
2023/03/14 10:03:34;;;;;;;0.50;0.50;;;10.90;99.90;;;;;;4955564;28;20086;-89
2023/03/14 10:06:00;;;;;;;3.80;0.88;;;11.00;99.90;;;;;;4955248;28;20027;-88
2023/03/14 10:08:31;;;;;;;2.47;0.57;;;11.10;99.90;;;;;;4954464;28;20048;-89
2023/03/14 10:10:59;;;;;;;7.57;1.05;;;11.20;99.90;;;;;;4955066;28;20138;-88
2023/03/14 10:13:30;;;;;;;0.82;0.60;;;11.40;99.90;;;;;;4956116;28;20478;-89
2023/03/14 10:16:02;;;;;;;2.00;0.65;;;11.80;99.90;;;;;;4956214;28;20031;-89
2023/03/14 10:18:34;;;;;;;0.70;0.60;;;12.00;99.90;;;;;;4955142;28;20035;-89
2023/03/14 10:21:19;;;;;;;1.38;0.75;;;12.40;99.90;;;;;;4958708;28;20033;-90
2023/03/14 10:23:45;;;;;;;0.60;0.55;;;12.40;99.90;;;;;;4956126;28;20103;-89
2023/03/14 10:26:38;;;;;;;1.48;0.75;;;12.50;99.90;;;;;;4958323;28;20039;-89
2023/03/14 10:29:12;;;;;;;1.40;0.60;;;12.40;99.90;;;;;;4956218;28;20039;-90
2023/03/14 10:31:52;;;;;;;0.65;0.60;;;12.40;99.90;;;;;;4959299;28;20050;-91
2023/03/14 10:34:26;;;;;;;0.60;0.50;;;12.40;99.90;;;;;;4957716;28;20020;-90
2023/03/14 10:37:04;;;;;;;1.88;0.55;;;12.40;99.90;;;;;;4959021;28;20031;-89
2023/03/14 10:39:38;;;;;;;2.40;0.60;;;12.40;99.90;;;;;;4958940;28;20038;-90
2023/03/14 10:42:13;;;;;;;1.48;0.60;;;12.50;99.90;;;;;;4958672;28;20039;-90
2023/03/14 10:44:41;;;;;;;2.72;0.60;;;12.60;99.90;;;;;;4958244;28;20038;-89
2023/03/14 10:47:18;;;;;;;0.90;0.55;;;12.60;99.90;;;;;;4960845;28;20031;-89
2023/03/14 10:49:43;;;;;;;4.18;0.50;;;12.70;99.90;;;;;;4957135;28;20090;-89
2023/03/14 10:52:23;;;;;;;10.43;0.90;;;12.90;99.90;;;;;;4959242;28;20039;-90
2023/03/14 10:55:03;;;;;;;0.47;0.40;;;13.10;99.90;;;;;;4958946;28;20034;-90
2023/03/14 10:57:29;;;;;;;1.60;0.40;;;13.20;99.90;;;;;;4957915;28;20027;-90
2023/03/14 10:59:58;;;;;;;1.27;0.50;;;13.10;99.90;;;;;;4960078;28;20031;-91
2023/03/14 11:02:48;;;;;;;0.70;0.47;;;13.00;99.90;;;;;;4956848;28;20441;-90
2023/03/14 11:05:26;;;;;;;2.95;0.50;;;12.90;99.90;;;;;;4960566;28;20385;-90
2023/03/14 11:07:57;;;;;;;0.60;0.50;;;12.80;99.90;;;;;;4958705;28;20066;-91
2023/03/14 11:10:35;;;;;;;0.70;0.43;;;12.60;99.90;;;;;;4960405;28;20046;-90
2023/03/14 11:13:37;;;;;;;0.52;0.45;;;12.60;99.90;;;;;;4958664;28;20053;-86
2023/03/14 11:16:24;;;;;;;1.17;0.65;;;12.60;99.90;;;;;;4957139;28;20047;-86
2023/03/14 11:19:21;;;;;;;1.20;0.50;;;12.90;99.90;;;;;;4958365;28;20561;-86
2023/03/14 11:22:14;;;;;;;0.63;0.50;;;12.90;99.90;;;;;;4956189;28;20028;-87
2023/03/14 11:25:09;;;;;;;1.05;0.57;;;13.20;99.90;;;;;;4959434;28;20422;-86
2023/03/14 11:27:43;;;;;;;2.35;0.70;;;13.60;99.90;;;;;;4956038;28;20035;-84
2023/03/14 11:30:38;;;;;;;0.50;0.50;;;13.80;99.90;;;;;;4957086;28;20506;-83
2023/03/14 11:33:16;;;;;;;0.60;0.50;;;13.80;99.90;;;;;;4956816;28;20055;-85
2023/03/14 11:36:03;;;;;;;3.35;0.50;;;13.70;99.90;;;;;;4956152;28;20027;-84
2023/03/14 11:38:30;;;;;;;2.05;0.40;;;13.70;99.90;;;;;;4955136;28;20031;-83
2023/03/14 11:40:58;;;;;;;0.65;0.52;;;13.40;99.90;;;;;;4959210;28;20030;-85
2023/03/14 11:43:36;;;;;;;1.48;0.50;;;13.20;99.90;;;;;;4955489;28;20209;-83
2023/03/14 11:46:11;;;;;;;1.13;0.50;;;13.10;99.90;;;;;;4956619;28;20026;-83
2023/03/14 11:48:46;;;;;;;0.65;0.50;;;12.90;99.90;;;;;;4955534;28;20117;-83
2023/03/14 11:51:20;;;;;;;1.73;0.60;;;12.80;99.90;;;;;;4955792;28;20086;-83
2023/03/14 11:54:01;;;;;;;0.40;0.40;;;12.80;99.90;;;;;;4955595;28;20728;-84
2023/03/14 11:56:50;;;;;;;0.95;0.45;;;12.80;99.90;;;;;;4955201;28;21464;-87
2023/03/14 11:59:21;;;;;;;2.58;0.43;;;12.90;99.90;;;;;;4955853;28;20101;-85
2023/03/14 12:01:54;;;;;;;5.28;0.68;;;12.90;99.90;;;;;;4957106;28;20065;-86
2023/03/14 12:04:32;;;;;;;0.40;0.40;;;12.80;99.90;;;;;;4958218;28;20105;-86
2023/03/14 12:07:05;;;;;;;0.40;0.40;;;12.70;99.90;;;;;;4957223;28;20031;-85
2023/03/14 12:09:32;;;;;;;0.93;0.60;;;12.60;99.90;;;;;;4957473;28;20131;-85
2023/03/14 12:12:03;;;;;;;0.63;0.50;;;12.60;99.90;;;;;;4953788;28;20065;-84
2023/03/14 12:14:33;;;;;;;1.70;0.60;;;12.60;99.90;;;;;;4955418;28;20038;-83
2023/03/14 12:17:22;;;;;;;0.45;0.38;;;12.60;99.90;;;;;;4958131;28;20031;-83
2023/03/14 12:20:05;;;;;;;2.95;0.50;;;12.60;99.90;;;;;;4957072;28;20070;-84
2023/03/14 12:22:34;;;;;;;1.00;0.50;;;12.60;99.90;;;;;;4954686;28;20031;-85
2023/03/14 12:25:13;;;;;;;0.40;0.40;;;12.60;99.90;;;;;;4955441;28;20058;-85
2023/03/14 12:27:53;;;;;;;1.02;0.63;;;12.70;99.90;;;;;;4955759;28;20035;-82
2023/03/14 12:30:28;;;;;;;0.25;0.25;;;12.70;99.90;;;;;;4956387;28;20037;-83
2023/03/14 12:33:11;;;;;;;0.32;0.30;;;12.70;99.90;;;;;;4954734;28;20154;-86
2023/03/14 12:35:50;;;;;;;1.30;0.30;;;12.80;99.90;;;;;;4954831;28;20039;-86
2023/03/14 12:38:48;;;;;;;0.40;0.32;;;12.90;99.90;;;;;;4955452;28;20046;-84
2023/03/14 12:41:28;;;;;;;0.47;0.47;;;13.10;99.90;;;;;;4954707;28;20050;-83
2023/03/14 12:43:53;;;;;;;2.13;0.40;;;13.10;99.90;;;;;;4954929;28;20046;-85
2023/03/14 12:46:24;;;;;;;0.73;0.50;;;13.10;99.90;;;;;;4954922;28;20078;-83
2023/03/14 12:48:55;;;;;;;2.03;0.70;;;12.90;99.90;;;;;;4956147;28;20035;-85
2023/03/14 12:51:29;;;;;;;0.60;0.40;;;12.90;99.90;;;;;;4954387;28;20122;-84
2023/03/14 12:54:49;;;;;;;1.23;0.70;;;12.70;99.90;;;;;;4957128;28;20473;-85
2023/03/14 12:57:32;;;;;;;0.50;0.50;;;12.60;99.90;;;;;;4932994;29;20573;-83
2023/03/14 13:00:22;;;;;;;1.75;0.30;;;12.40;99.90;;;;;;4933084;29;20692;-84
2023/03/14 13:02:49;;;;;;;1.33;0.40;;;12.30;99.90;;;;;;4948811;28;20039;-85
2023/03/14 13:05:33;;;;;;;1.30;0.50;;;12.30;99.90;;;;;;4956607;28;20038;-84
2023/03/14 13:07:59;;;;;;;0.73;0.60;;;12.40;99.90;;;;;;4955429;28;20054;-85
2023/03/14 13:10:39;;;;;;;0.20;0.20;;;12.30;99.90;;;;;;4955079;28;20047;-85
2023/03/14 13:13:20;;;;;;;0.50;0.50;;;12.20;99.90;;;;;;4952986;28;20027;-84
2023/03/14 13:15:48;;;;;;;0.35;0.35;;;12.20;99.90;;;;;;4953435;28;20122;-85
2023/03/14 13:18:17;;;;;;;1.70;0.90;;;12.10;99.90;;;;;;4954130;28;20770;-84